createdAt,value
2022-10-11T00:01:23.386Z,98848.00
2022-10-11T00:03:53.292Z,98854.00
2022-10-11T00:06:23.126Z,98847.00
2022-10-11T00:08:53.014Z,98853.00
2022-10-11T00:11:25.508Z,98856.00
2022-10-11T00:13:55.324Z,98850.00
2022-10-11T00:16:25.339Z,98853.00
2022-10-11T00:18:55.200Z,98855.00
2022-10-11T00:21:25.630Z,98863.00
2022-10-11T00:23:55.561Z,98858.00
2022-10-11T00:26:28.018Z,98860.00
2022-10-11T00:28:58.250Z,98849.00
2022-10-11T00:31:30.919Z,98853.00
2022-10-11T00:34:04.586Z,98851.00
2022-10-11T00:36:34.494Z,98842.00
2022-10-11T00:39:04.385Z,98848.00
2022-10-11T00:41:36.963Z,98844.00
2022-10-11T00:44:18.997Z,98843.00
2022-10-11T00:46:55.845Z,98834.00
2022-10-11T00:49:30.989Z,98836.00
2022-10-11T00:52:04.166Z,98828.00
2022-10-11T00:54:36.150Z,98815.00
2022-10-11T00:57:11.488Z,98818.00
2022-10-11T00:59:45.517Z,98815.00
2022-10-11T01:02:16.168Z,98814.00
2022-10-11T01:04:46.092Z,98820.00
2022-10-11T01:07:16.382Z,98828.00
2022-10-11T01:09:46.201Z,98836.00
2022-10-11T01:12:21.318Z,98826.00
2022-10-11T01:15:08.168Z,98840.00
2022-10-11T01:17:45.816Z,98840.00
2022-10-11T01:20:47.906Z,98837.00
2022-10-11T01:23:50.816Z,98846.00
2022-10-11T01:27:02.094Z,98845.00
2022-10-11T01:29:46.450Z,98846.00
2022-10-11T01:32:20.632Z,98841.00
2022-10-11T01:34:56.832Z,98843.00
2022-10-11T01:37:30.487Z,98850.00
2022-10-11T01:40:04.187Z,98847.00
2022-10-11T01:42:34.450Z,98841.00
2022-10-11T01:45:04.452Z,98843.00
2022-10-11T01:47:36.932Z,98854.00
2022-10-11T01:50:08.146Z,98854.00
2022-10-11T01:52:39.673Z,98860.00
2022-10-11T01:55:19.419Z,98864.00
2022-10-11T01:58:09.673Z,98860.00
2022-10-11T02:00:47.384Z,98864.00
2022-10-11T02:03:28.734Z,98864.00
2022-10-11T02:06:03.252Z,98868.00
2022-10-11T02:08:38.035Z,98861.00
2022-10-11T02:11:09.732Z,98866.00
2022-10-11T02:13:43.043Z,98867.00
2022-10-11T02:16:16.218Z,98864.00
2022-10-11T02:18:51.308Z,98864.00
2022-10-11T02:21:22.794Z,98870.00
2022-10-11T02:23:55.124Z,98869.00
2022-10-11T02:26:25.244Z,98865.00
2022-10-11T02:28:57.098Z,98872.00
2022-10-11T02:31:27.781Z,98861.00
2022-10-11T02:34:04.780Z,98878.00
2022-10-11T02:36:40.873Z,98883.00
2022-10-11T02:39:15.607Z,98887.00
2022-10-11T02:41:45.589Z,98881.00
2022-10-11T02:44:18.608Z,98889.00
2022-10-11T02:46:49.061Z,98878.00
2022-10-11T02:49:22.337Z,98889.00
2022-10-11T02:51:52.259Z,98896.00
2022-10-11T02:54:22.112Z,98889.00
2022-10-11T02:56:51.986Z,98896.00
2022-10-11T02:59:22.189Z,98898.00
2022-10-11T03:01:52.109Z,98900.00
2022-10-11T03:04:24.684Z,98913.00
2022-10-11T03:06:54.530Z,98911.00
2022-10-11T03:09:24.562Z,98918.00
2022-10-11T03:11:54.503Z,98916.00
2022-10-11T03:14:24.338Z,98926.00
2022-10-11T03:16:54.209Z,98923.00
2022-10-11T03:19:26.682Z,98929.00
2022-10-11T03:21:56.596Z,98930.00
2022-10-11T03:24:26.709Z,98923.00
2022-10-11T03:26:56.629Z,98937.00
2022-10-11T03:29:26.696Z,98931.00
2022-10-11T03:31:56.540Z,98932.00
2022-10-11T03:34:29.189Z,98933.00
2022-10-11T03:36:59.133Z,98938.00
2022-10-11T03:39:28.966Z,98938.00
2022-10-11T03:41:59.051Z,98940.00
2022-10-11T03:44:29.066Z,98946.00
2022-10-11T03:46:59.119Z,98947.00
2022-10-11T03:49:31.702Z,98964.00
2022-10-11T03:52:01.640Z,98960.00
2022-10-11T03:54:31.493Z,98966.00
2022-10-11T03:57:01.421Z,98967.00
2022-10-11T03:59:31.332Z,98972.00
2022-10-11T04:02:01.258Z,98977.00
2022-10-11T04:04:33.786Z,98979.00
2022-10-11T04:07:03.640Z,98979.00
2022-10-11T04:09:33.696Z,98987.00
2022-10-11T04:12:03.874Z,98989.00
2022-10-11T04:14:33.727Z,98998.00
2022-10-11T04:17:03.591Z,99000.00
2022-10-11T04:19:37.321Z,99007.00
2022-10-11T04:22:07.407Z,99014.00
2022-10-11T04:24:37.241Z,99018.00
2022-10-11T04:27:07.323Z,99015.00
2022-10-11T04:29:37.366Z,99024.00
2022-10-11T04:32:07.378Z,99023.00
2022-10-11T04:34:39.842Z,99024.00
2022-10-11T04:37:09.734Z,99022.00
2022-10-11T04:39:39.795Z,99019.00
2022-10-11T04:42:09.724Z,99036.00
2022-10-11T04:44:39.756Z,99037.00
2022-10-11T04:47:09.649Z,99029.00
2022-10-11T04:49:42.130Z,99039.00
2022-10-11T04:52:12.024Z,99040.00
2022-10-11T04:54:41.892Z,99043.00
2022-10-11T04:57:11.760Z,99039.00
2022-10-11T04:59:42.927Z,99033.00
2022-10-11T05:02:14.492Z,99041.00
2022-10-11T05:04:47.040Z,99039.00
2022-10-11T05:07:17.029Z,99040.00
2022-10-11T05:09:46.850Z,99044.00
2022-10-11T05:12:16.705Z,99053.00
2022-10-11T05:14:46.548Z,99048.00
2022-10-11T05:17:16.361Z,99057.00
2022-10-11T05:19:48.797Z,99056.00
2022-10-11T05:22:18.608Z,99071.00
2022-10-11T05:24:48.463Z,99066.00
2022-10-11T05:27:18.328Z,99073.00
2022-10-11T05:29:48.214Z,99074.00
2022-10-11T05:32:18.031Z,99078.00
2022-10-11T05:34:50.468Z,99096.00
2022-10-11T05:37:20.349Z,99096.00
2022-10-11T05:39:50.256Z,99102.00
2022-10-11T05:42:20.210Z,99110.00
2022-10-11T05:44:50.022Z,99104.00
2022-10-11T05:47:19.872Z,99112.00
2022-10-11T05:49:52.357Z,99120.00
2022-10-11T05:52:22.484Z,99124.00
2022-10-11T05:54:52.514Z,99133.00
2022-10-11T05:57:22.350Z,99134.00
2022-10-11T05:59:52.356Z,99142.00
2022-10-11T06:02:22.214Z,99136.00
2022-10-11T06:04:54.690Z,99136.00
2022-10-11T06:07:24.577Z,99136.00
2022-10-11T06:09:54.638Z,99151.00
2022-10-11T06:12:24.569Z,99154.00
2022-10-11T06:14:54.419Z,99155.00
2022-10-11T06:17:24.509Z,99165.00
2022-10-11T06:19:56.952Z,99164.00
2022-10-11T06:22:26.858Z,99161.00
2022-10-11T06:24:56.703Z,99160.00
2022-10-11T06:27:26.553Z,99167.00
2022-10-11T06:29:56.650Z,99168.00
2022-10-11T06:32:26.523Z,99171.00
2022-10-11T06:34:58.956Z,99173.00
2022-10-11T06:37:28.821Z,99183.00
2022-10-11T06:39:58.699Z,99190.00
2022-10-11T06:42:28.674Z,99199.00
2022-10-11T06:44:58.531Z,99205.00
2022-10-11T06:47:28.505Z,99202.00
2022-10-11T06:50:00.967Z,99205.00
2022-10-11T06:52:30.806Z,99203.00
2022-10-11T06:55:00.620Z,99207.00
2022-10-11T06:57:31.683Z,99207.00
2022-10-11T07:00:01.573Z,99216.00
2022-10-11T07:02:31.396Z,99218.00
2022-10-11T07:05:03.825Z,99222.00
2022-10-11T07:07:33.838Z,99211.00
2022-10-11T07:10:03.682Z,99220.00
2022-10-11T07:12:33.533Z,99220.00
2022-10-11T07:15:03.359Z,99221.00
2022-10-11T07:17:33.198Z,99225.00
2022-10-11T07:20:05.705Z,99228.00
2022-10-11T07:22:35.521Z,99230.00
2022-10-11T07:25:05.381Z,99235.00
2022-10-11T07:27:35.263Z,99239.00
2022-10-11T07:30:05.112Z,99235.00
2022-10-11T07:32:34.933Z,99241.00
2022-10-11T07:35:08.252Z,99243.00
2022-10-11T07:37:38.074Z,99246.00
2022-10-11T07:40:11.030Z,99250.00
2022-10-11T07:42:40.892Z,99257.00
2022-10-11T07:45:11.483Z,99262.00
2022-10-11T07:47:41.316Z,99258.00
2022-10-11T07:50:14.136Z,99265.00
2022-10-11T07:52:44.042Z,99260.00
2022-10-11T07:55:13.908Z,99264.00
2022-10-11T07:57:43.794Z,99270.00
2022-10-11T08:00:15.189Z,99275.00
2022-10-11T08:02:45.074Z,99263.00
2022-10-11T08:05:17.701Z,99278.00
2022-10-11T08:07:48.930Z,99270.00
2022-10-11T08:10:19.031Z,99274.00
2022-10-11T08:12:50.434Z,99283.00
2022-10-11T08:15:20.819Z,99276.00
2022-10-11T08:17:50.840Z,99283.00
2022-10-11T08:20:23.830Z,99286.00
2022-10-11T08:22:53.693Z,99285.00
2022-10-11T08:25:23.548Z,99288.00
2022-10-11T08:27:53.522Z,99287.00
2022-10-11T08:30:23.359Z,99288.00
2022-10-11T08:32:53.280Z,99297.00
2022-10-11T08:35:25.751Z,99289.00
2022-10-11T08:37:55.667Z,99295.00
2022-10-11T08:40:26.031Z,99295.00
2022-10-11T08:43:02.197Z,99313.00
2022-10-11T08:45:36.385Z,99304.00
2022-10-11T08:48:12.079Z,99308.00
2022-10-11T08:50:46.163Z,99315.00
2022-10-11T08:53:22.811Z,99308.00
2022-10-11T08:55:54.132Z,99310.00
2022-10-11T08:58:25.832Z,99312.00
2022-10-11T09:00:57.496Z,99316.00
2022-10-11T09:03:32.852Z,99317.00
2022-10-11T09:06:13.592Z,99316.00
2022-10-11T09:08:58.609Z,99314.00
2022-10-11T09:11:38.057Z,99318.00
2022-10-11T09:14:29.482Z,99325.00
2022-10-11T09:17:06.456Z,99326.00
2022-10-11T09:20:00.095Z,99322.00
2022-10-11T09:22:38.728Z,99327.00
2022-10-11T09:25:18.421Z,99332.00
2022-10-11T09:28:02.668Z,99337.00
2022-10-11T09:31:12.317Z,99337.00
2022-10-11T09:33:46.144Z,99329.00
2022-10-11T09:36:21.968Z,99335.00
2022-10-11T09:38:57.875Z,99331.00
2022-10-11T09:41:32.581Z,99329.00
2022-10-11T09:44:02.417Z,99342.00
2022-10-11T09:46:37.538Z,99327.00
2022-10-11T09:49:10.819Z,99335.00
2022-10-11T09:51:41.892Z,99325.00
2022-10-11T09:54:14.408Z,99342.00
2022-10-11T09:56:45.650Z,99345.00
2022-10-11T09:59:31.817Z,99352.00
2022-10-11T10:02:23.751Z,99352.00
2022-10-11T10:05:02.701Z,99346.00
2022-10-11T10:07:35.108Z,99349.00
2022-10-11T10:10:29.933Z,99353.00
2022-10-11T10:13:02.467Z,99348.00
2022-10-11T10:15:33.849Z,99353.00
2022-10-11T10:18:03.858Z,99348.00
2022-10-11T10:20:35.466Z,99355.00
2022-10-11T10:23:10.052Z,99346.00
2022-10-11T10:25:43.781Z,99342.00
2022-10-11T10:28:22.335Z,99348.00
2022-10-11T10:30:56.507Z,99334.00
2022-10-11T10:33:28.064Z,99345.00
2022-10-11T10:36:01.449Z,99346.00
2022-10-11T10:38:34.111Z,99348.00
2022-10-11T10:41:09.261Z,99351.00
2022-10-11T10:43:40.727Z,99357.00
2022-10-11T10:46:21.805Z,99357.00
2022-10-11T10:49:41.220Z,99351.00
2022-10-11T10:51:54.765Z,99353.00
2022-10-11T10:54:30.969Z,99358.00
2022-10-11T10:57:07.707Z,99357.00
2022-10-11T10:59:50.839Z,99364.00
2022-10-11T11:02:41.544Z,99364.00
2022-10-11T11:05:21.223Z,99359.00
2022-10-11T11:07:56.284Z,99361.00
2022-10-11T11:10:30.227Z,99348.00
2022-10-11T11:13:12.519Z,99371.00
2022-10-11T11:15:45.438Z,99363.00
2022-10-11T11:18:26.049Z,99370.00
2022-10-11T11:21:16.269Z,99372.00
2022-10-11T11:23:51.113Z,99362.00
2022-10-11T11:26:27.754Z,99367.00
2022-10-11T11:29:10.053Z,99365.00
2022-10-11T11:31:49.067Z,99357.00
2022-10-11T11:34:23.059Z,99362.00
2022-10-11T11:36:55.586Z,99357.00
2022-10-11T11:39:27.112Z,99363.00
2022-10-11T11:41:59.721Z,99358.00
2022-10-11T11:44:35.969Z,99347.00
2022-10-11T11:47:10.677Z,99357.00
2022-10-11T11:52:36.825Z,99356.00
2022-10-11T11:55:12.392Z,99357.00
2022-10-11T11:57:56.520Z,99354.00
2022-10-11T12:00:31.479Z,99351.00
2022-10-11T12:03:03.916Z,99353.00
2022-10-11T12:05:36.155Z,99349.00
2022-10-11T12:08:08.394Z,99349.00
2022-10-11T12:10:40.596Z,99340.00
2022-10-11T12:13:20.912Z,99342.00
2022-10-11T12:16:14.814Z,99335.00
2022-10-11T12:18:54.257Z,99335.00
2022-10-11T12:21:28.602Z,99326.00
2022-10-11T12:23:59.363Z,99335.00
2022-10-11T12:26:40.802Z,99343.00
2022-10-11T12:29:43.075Z,99344.00
2022-10-11T12:32:54.567Z,99340.00
2022-10-11T12:35:45.355Z,99344.00
2022-10-11T12:38:22.140Z,99346.00
2022-10-11T12:40:54.719Z,99343.00
2022-10-11T12:43:36.436Z,99347.00
2022-10-11T12:46:36.293Z,99340.00
2022-10-11T12:49:15.339Z,99342.00
2022-10-11T12:51:48.420Z,99340.00
2022-10-11T12:54:37.470Z,99349.00
2022-10-11T12:57:36.261Z,99341.00
2022-10-11T13:00:21.914Z,99347.00
2022-10-11T13:02:52.172Z,99343.00
2022-10-11T13:05:26.177Z,99345.00
2022-10-11T13:08:00.264Z,99350.00
2022-10-11T13:10:33.179Z,99347.00
2022-10-11T13:13:04.571Z,99344.00
2022-10-11T13:15:34.803Z,99348.00
2022-10-11T13:18:05.153Z,99338.00
2022-10-11T13:20:40.313Z,99339.00
2022-10-11T13:23:26.563Z,99348.00
2022-10-11T13:25:57.608Z,99348.00
2022-10-11T13:28:27.487Z,99347.00
2022-10-11T13:30:59.960Z,99352.00
2022-10-11T13:33:33.759Z,99346.00
2022-10-11T13:36:05.429Z,99356.00
2022-10-11T13:38:39.174Z,99352.00
2022-10-11T13:41:11.442Z,99345.00
2022-10-11T13:43:41.891Z,99357.00
2022-10-11T13:46:15.472Z,99350.00
2022-10-11T13:48:45.747Z,99356.00
2022-10-11T13:51:19.693Z,99360.00
2022-10-11T13:54:03.980Z,99358.00
2022-10-11T13:56:36.044Z,99371.00
2022-10-11T13:59:05.973Z,99365.00
2022-10-11T14:01:42.489Z,99363.00
2022-10-11T14:04:15.589Z,99365.00
2022-10-11T14:06:47.479Z,99378.00
2022-10-11T14:09:23.078Z,99372.00
2022-10-11T14:11:53.135Z,99372.00
2022-10-11T14:14:44.747Z,99367.00
2022-10-11T14:17:18.059Z,99361.00
2022-10-11T14:19:49.064Z,99371.00
2022-10-11T14:22:20.685Z,99372.00
2022-10-11T14:24:53.143Z,99373.00
2022-10-11T14:27:26.188Z,99363.00
2022-10-11T14:30:23.462Z,99376.00
2022-10-11T14:32:45.872Z,99362.00
2022-10-11T14:35:20.065Z,99370.00
2022-10-11T14:37:50.111Z,99366.00
2022-10-11T14:40:25.177Z,99367.00
2022-10-11T14:42:55.084Z,99371.00
2022-10-11T14:45:25.044Z,99380.00
2022-10-11T14:47:54.939Z,99366.00
2022-10-11T14:50:35.201Z,99377.00
2022-10-11T14:53:06.002Z,99368.00
2022-10-11T14:55:38.872Z,99377.00
2022-10-11T14:58:09.572Z,99372.00
2022-10-11T15:00:40.046Z,99378.00
2022-10-11T15:03:09.915Z,99381.00
2022-10-11T15:05:40.508Z,99379.00
2022-10-11T15:08:10.872Z,99377.00
2022-10-11T15:10:44.006Z,99380.00
2022-10-11T15:13:13.828Z,99382.00
2022-10-11T15:15:43.735Z,99385.00
2022-10-11T15:18:17.614Z,99388.00
2022-10-11T15:20:49.022Z,99393.00
2022-10-11T15:23:18.942Z,99396.00
2022-10-11T15:25:51.389Z,99400.00
2022-10-11T15:28:25.498Z,99405.00
2022-10-11T15:30:55.448Z,99397.00
2022-10-11T15:33:25.543Z,99398.00
2022-10-11T15:35:55.574Z,99409.00
2022-10-11T15:38:27.996Z,99407.00
2022-10-11T15:41:00.879Z,99407.00
2022-10-11T15:43:30.794Z,99403.00
2022-10-11T15:46:00.990Z,99407.00
2022-10-11T15:48:30.856Z,99406.00
2022-10-11T15:51:00.712Z,99403.00
2022-10-11T15:53:32.470Z,99403.00
2022-10-11T15:56:08.444Z,99409.00
2022-10-11T15:58:41.744Z,99401.00
2022-10-11T16:01:15.362Z,99407.00
2022-10-11T16:03:45.486Z,99414.00
2022-10-11T16:06:15.536Z,99417.00
2022-10-11T16:08:45.426Z,99419.00
2022-10-11T16:11:17.899Z,99417.00
2022-10-11T16:13:47.990Z,99424.00
2022-10-11T16:16:17.806Z,99426.00
2022-10-11T16:18:47.684Z,99424.00
2022-10-11T16:21:18.046Z,99421.00
2022-10-11T16:23:47.863Z,99431.00
2022-10-11T16:26:20.315Z,99429.00
2022-10-11T16:28:50.525Z,99435.00
2022-10-11T16:31:21.389Z,99438.00
2022-10-11T16:33:52.978Z,99440.00
2022-10-11T16:36:40.743Z,99438.00
2022-10-11T16:39:13.544Z,99436.00
2022-10-11T16:41:46.657Z,99440.00
2022-10-11T16:44:17.955Z,99434.00
2022-10-11T16:46:49.405Z,99440.00
2022-10-11T16:49:20.175Z,99438.00
2022-10-11T16:51:50.043Z,99443.00
2022-10-11T16:54:20.944Z,99448.00
2022-10-11T16:56:53.481Z,99442.00
2022-10-11T16:59:23.418Z,99440.00
2022-10-11T17:01:53.421Z,99438.00
2022-10-11T17:07:12.445Z,99444.00
2022-10-11T17:09:44.101Z,99444.00
2022-10-11T17:12:18.099Z,99444.00
2022-10-11T17:14:47.980Z,99447.00
2022-10-11T17:17:18.802Z,99446.00
2022-10-11T17:19:48.955Z,99450.00
2022-10-11T17:22:21.894Z,99459.00
2022-10-11T17:24:51.838Z,99454.00
2022-10-11T17:27:24.287Z,99458.00
2022-10-11T17:29:54.256Z,99460.00
2022-10-11T17:32:24.194Z,99457.00
2022-10-11T17:34:54.290Z,99457.00
2022-10-11T17:37:24.146Z,99454.00
2022-10-11T17:39:54.006Z,99454.00
2022-10-11T17:42:26.450Z,99456.00
2022-10-11T17:44:56.280Z,99454.00
2022-10-11T17:47:26.100Z,99455.00
2022-10-11T17:49:55.967Z,99447.00
2022-10-11T17:52:25.792Z,99456.00
2022-10-11T17:54:55.764Z,99447.00
2022-10-11T17:57:28.210Z,99455.00
2022-10-11T17:59:58.057Z,99454.00
2022-10-11T18:02:28.002Z,99455.00
2022-10-11T18:04:58.166Z,99451.00
2022-10-11T18:07:28.265Z,99455.00
2022-10-11T18:09:58.113Z,99442.00
2022-10-11T18:12:30.989Z,99449.00
2022-10-11T18:15:00.852Z,99450.00
2022-10-11T18:17:30.669Z,99454.00
2022-10-11T18:20:00.544Z,99433.00
2022-10-11T18:22:30.501Z,99456.00
2022-10-11T18:25:00.810Z,99454.00
2022-10-11T18:27:33.750Z,99449.00
2022-10-11T18:30:03.747Z,99447.00
2022-10-11T18:32:33.613Z,99445.00
2022-10-11T18:35:03.525Z,99441.00
2022-10-11T18:37:33.432Z,99445.00
2022-10-11T18:40:03.868Z,99443.00
2022-10-11T18:42:36.368Z,99449.00
2022-10-11T18:45:06.445Z,99438.00
2022-10-11T18:47:36.272Z,99446.00
2022-10-11T18:50:06.397Z,99448.00
2022-10-11T18:52:37.615Z,99450.00
2022-10-11T18:55:10.065Z,99448.00
2022-10-11T18:57:42.508Z,99445.00
2022-10-11T19:04:55.342Z,99445.00
2022-10-11T19:07:25.945Z,99454.00
2022-10-11T19:09:55.785Z,99446.00
2022-10-11T19:12:25.755Z,99454.00
2022-10-11T19:14:55.577Z,99451.00
2022-10-11T19:17:25.413Z,99442.00
2022-10-11T19:19:59.668Z,99452.00
2022-10-11T19:22:29.632Z,99446.00
2022-10-11T19:24:59.481Z,99448.00
2022-10-11T19:27:29.354Z,99448.00
2022-10-11T19:30:00.461Z,99445.00
2022-10-11T19:32:30.335Z,99458.00
2022-10-11T19:35:02.791Z,99454.00
2022-10-11T19:37:33.035Z,99457.00
2022-10-11T19:40:04.100Z,99455.00
2022-10-11T19:42:34.304Z,99447.00
2022-10-11T19:45:04.415Z,99459.00
2022-10-11T19:47:34.325Z,99456.00
2022-10-11T19:50:07.481Z,99457.00
2022-10-11T19:52:40.342Z,99458.00
2022-10-11T19:55:13.060Z,99463.00
2022-10-11T19:57:42.956Z,99468.00
2022-10-11T20:00:14.002Z,99461.00
2022-10-11T20:02:43.882Z,99453.00
2022-10-11T20:05:16.536Z,99464.00
2022-10-11T20:07:46.650Z,99461.00
2022-10-11T20:10:16.614Z,99464.00
2022-10-11T20:12:46.545Z,99456.00
2022-10-11T20:15:16.442Z,99459.00
2022-10-11T20:17:52.076Z,99458.00
2022-10-11T20:20:24.533Z,99453.00
2022-10-11T20:22:54.362Z,99461.00
2022-10-11T20:25:24.259Z,99450.00
2022-10-11T20:27:54.129Z,99458.00
2022-10-11T20:30:23.966Z,99455.00
2022-10-11T20:32:53.813Z,99446.00
2022-10-11T20:35:26.223Z,99452.00
2022-10-11T20:37:56.345Z,99442.00
2022-10-11T20:40:26.164Z,99443.00
2022-10-11T20:42:56.028Z,99451.00
2022-10-11T20:45:27.962Z,99451.00
2022-10-11T20:47:57.845Z,99449.00
2022-10-11T20:50:30.713Z,99452.00
2022-10-11T20:53:00.600Z,99452.00
2022-10-11T20:55:30.518Z,99449.00
2022-10-11T20:58:00.339Z,99450.00
2022-10-11T21:00:30.301Z,99451.00
2022-10-11T21:03:00.128Z,99448.00
2022-10-11T21:05:32.570Z,99450.00
2022-10-11T21:08:02.463Z,99438.00
2022-10-11T21:10:32.416Z,99447.00
2022-10-11T21:13:02.484Z,99451.00
2022-10-11T21:15:32.434Z,99453.00
2022-10-11T21:18:02.311Z,99440.00
2022-10-11T21:20:34.793Z,99449.00
2022-10-11T21:23:04.670Z,99440.00
2022-10-11T21:25:35.618Z,99449.00
2022-10-11T21:28:05.689Z,99437.00
2022-10-11T21:30:36.242Z,99445.00
2022-10-11T21:33:06.126Z,99436.00
2022-10-11T21:35:41.965Z,99450.00
2022-10-11T21:38:14.249Z,99438.00
2022-10-11T21:40:44.145Z,99445.00
2022-10-11T21:43:14.098Z,99449.00
2022-10-11T21:45:43.944Z,99449.00
2022-10-11T21:48:13.781Z,99444.00
2022-10-11T21:50:46.233Z,99448.00
2022-10-11T21:53:16.121Z,99453.00
2022-10-11T21:55:45.972Z,99448.00
2022-10-11T21:58:15.847Z,99450.00
2022-10-11T22:00:45.674Z,99439.00
2022-10-11T22:03:15.532Z,99444.00
2022-10-11T22:05:49.723Z,99439.00
2022-10-11T22:08:19.645Z,99442.00
2022-10-11T22:10:56.259Z,99445.00
2022-10-11T22:13:26.832Z,99439.00
2022-10-11T22:15:56.735Z,99433.00
2022-10-11T22:18:29.862Z,99434.00
2022-10-11T22:21:12.151Z,99429.00
2022-10-11T22:23:42.071Z,99433.00
2022-10-11T22:26:15.829Z,99434.00
2022-10-11T22:28:46.690Z,99438.00
2022-10-11T22:31:18.044Z,99436.00
2022-10-11T22:33:48.316Z,99437.00
2022-10-11T22:36:20.786Z,99428.00
2022-10-11T22:38:50.684Z,99444.00
2022-10-11T22:41:20.581Z,99442.00
2022-10-11T22:43:50.483Z,99442.00
2022-10-11T22:46:20.326Z,99444.00
2022-10-11T22:48:50.190Z,99433.00
2022-10-11T22:51:22.659Z,99435.00
2022-10-11T22:53:52.541Z,99430.00
2022-10-11T22:56:22.379Z,99432.00
2022-10-11T22:58:52.226Z,99437.00
2022-10-11T23:01:22.078Z,99436.00
2022-10-11T23:03:52.455Z,99443.00
2022-10-11T23:06:24.956Z,99444.00
2022-10-11T23:08:54.822Z,99448.00
2022-10-11T23:11:24.696Z,99452.00
2022-10-11T23:13:54.572Z,99441.00
2022-10-11T23:16:24.815Z,99438.00
2022-10-11T23:18:55.384Z,99442.00
2022-10-11T23:21:27.835Z,99439.00
2022-10-11T23:23:58.081Z,99445.00
2022-10-11T23:26:27.905Z,99450.00
2022-10-11T23:28:58.195Z,99434.00
2022-10-11T23:31:28.137Z,99437.00
2022-10-11T23:33:57.977Z,99442.00
2022-10-11T23:36:30.405Z,99449.00
2022-10-11T23:39:01.260Z,99448.00
2022-10-11T23:41:32.065Z,99451.00
2022-10-11T23:44:02.000Z,99456.00
2022-10-11T23:46:31.898Z,99443.00
2022-10-11T23:49:01.753Z,99448.00
2022-10-11T23:51:34.318Z,99446.00
2022-10-11T23:54:04.209Z,99449.00
2022-10-11T23:56:34.126Z,99446.00
2022-10-11T23:59:03.983Z,99449.00
